Time;durP1;ratioP1;P1;durP2;ratioP2;P2;SDS_P1;SDS_P2;PMS_P1;PMS_P2;Temp;Humidity;BMP_temperature;BMP_pressure;BME280_temperature;BME280_humidity;BME280_pressure;Samples;Min_cycle;Max_cycle;Signal;HPM_P1;HPM_P2
2023/10/16 00:09:29;;;;;;;7.50;5.05;;;;;;;3.26;100.00;102146.06;3292444;23;20047;-81
2023/10/16 00:12:45;;;;;;;6.60;4.78;;;;;;;3.32;100.00;102140.28;4936033;29;20036;-80
2023/10/16 00:15:40;;;;;;;8.88;5.13;;;;;;;3.37;100.00;102142.56;4933461;29;20040;-81
2023/10/16 00:18:35;;;;;;;8.40;5.20;;;;;;;3.36;100.00;102146.19;4933907;29;20043;-81
2023/10/16 00:21:24;;;;;;;6.50;4.80;;;;;;;3.29;100.00;102134.34;4927829;29;20095;-81
2023/10/16 00:23:50;;;;;;;8.88;5.07;;;;;;;3.36;100.00;102135.53;4920203;29;20036;-81
2023/10/16 00:26:21;;;;;;;;;;;;;;;3.39;100.00;102137.97;4929380;29;20028;-81
2023/10/16 00:28:47;;;;;;;6.03;4.00;;;;;;;3.40;100.00;102138.84;4932822;29;20279;-81
2023/10/16 00:31:21;;;;;;;;;;;;;;;3.39;100.00;102135.31;4932864;29;20110;-81
2023/10/16 00:33:53;;;;;;;6.40;4.65;;;;;;;3.29;100.00;102139.66;4929271;29;19919;-81
2023/10/16 00:36:18;;;;;;;8.68;5.00;;;;;;;3.26;100.00;102129.25;4930319;29;20036;-81
2023/10/16 00:38:49;;;;;;;;;;;;;;;3.30;100.00;102141.34;4932546;29;20035;-81
2023/10/16 00:43:43;;;;;;;6.40;4.70;;;;;;;3.32;100.00;102136.78;4934390;29;20529;-81
2023/10/16 00:46:09;;;;;;;7.72;5.22;;;;;;;3.30;100.00;102141.34;4930564;29;20126;-81
2023/10/16 00:48:35;;;;;;;10.45;5.43;;;;;;;3.22;100.00;102136.63;4931483;29;20032;-81
2023/10/16 00:51:08;;;;;;;9.18;5.40;;;;;;;3.19;100.00;102129.69;4907895;29;20032;-81
2023/10/16 00:53:34;;;;;;;8.15;5.43;;;;;;;3.15;100.00;102130.06;4922592;29;20060;-81
2023/10/16 00:56:02;;;;;;;8.95;5.15;;;;;;;3.18;100.00;102133.31;4895520;29;20032;-81
2023/10/16 00:58:29;;;;;;;8.05;5.53;;;;;;;3.18;100.00;102132.50;4933755;29;20040;-81
2023/10/16 01:00:57;;;;;;;9.38;5.40;;;;;;;3.16;100.00;102135.28;4931978;29;20132;-82
2023/10/16 01:03:32;;;;;;;8.35;5.63;;;;;;;3.17;100.00;102126.34;4932169;29;20111;-82
2023/10/16 01:05:58;;;;;;;8.32;5.60;;;;;;;3.16;100.00;102135.28;4923539;29;20125;-81
2023/10/16 01:08:27;;;;;;;7.65;5.35;;;;;;;3.16;100.00;102129.97;4903981;29;20473;-81
2023/10/16 01:10:57;;;;;;;10.02;6.05;;;;;;;3.17;100.00;102142.31;4933939;29;20113;-81
2023/10/16 01:13:22;;;;;;;9.10;5.88;;;;;;;3.15;100.00;102132.72;4932075;29;20038;-82
2023/10/16 01:15:50;;;;;;;9.02;5.72;;;;;;;3.12;100.00;102132.94;4932840;29;20392;-81
2023/10/16 01:18:17;;;;;;;11.10;6.25;;;;;;;3.12;100.00;102133.81;4914367;29;20132;-81
2023/10/16 01:20:51;;;;;;;10.05;6.20;;;;;;;3.20;100.00;102130.56;4935155;29;20032;-81
2023/10/16 01:23:23;;;;;;;11.18;6.05;;;;;;;3.25;100.00;102122.22;4926820;29;20065;-81
2023/10/16 01:25:51;;;;;;;8.02;5.53;;;;;;;3.34;100.00;102122.38;4929512;29;20056;-82
2023/10/16 01:31:04;;;;;;;8.55;5.57;;;;;;;3.45;100.00;102113.56;5014878;23;20535;-82
2023/10/16 01:33:53;;;;;;;10.70;5.80;;;;;;;3.35;100.00;102117.91;4926366;29;20473;-82
2023/10/16 02:00:06;;;;;;;9.35;6.15;;;;;;;3.93;100.00;102101.84;5257644;23;20087;-81
2023/10/16 02:02:32;;;;;;;10.65;6.00;;;;;;;3.95;100.00;102104.38;4929690;29;20149;-81
2023/10/16 02:04:58;;;;;;;;;;;;;;;3.93;100.00;102107.16;4932659;29;20036;-81
2023/10/16 02:07:33;;;;;;;9.10;5.55;;;;;;;3.97;100.00;102105.09;4931734;29;19938;-81
2023/10/16 02:09:59;;;;;;;9.48;5.65;;;;;;;4.10;100.00;102096.97;4933772;29;20107;-82
2023/10/16 02:12:24;;;;;;;;;;;;;;;4.13;100.00;102095.88;4936613;29;20040;-81
2023/10/16 02:14:49;;;;;;;6.70;4.97;;;;;;;4.20;100.00;102089.09;4931259;29;19926;-81
2023/10/16 02:17:19;;;;;;;;;;;;;;;4.14;100.00;102077.09;4935940;29;20043;-86
2023/10/16 02:19:45;;;;;;;8.40;4.80;;;;;;;4.19;100.00;102084.72;4934180;29;19919;-85
2023/10/16 02:22:26;;;;;;;8.18;5.50;;;;;;;4.13;100.00;102074.56;4929513;29;20067;-86
2023/10/16 03:22:25;;;;;;;5.22;4.65;;;;;;;4.40;100.00;102096.31;4880012;29;20073;-86
2023/10/16 03:32:28;;;;;;;8.23;4.60;;;;;;;4.65;100.00;102080.09;4917036;29;20738;-86
2023/10/16 03:35:43;;;;;;;7.72;4.43;;;;;;;4.70;100.00;102076.06;4932684;29;20036;-86
2023/10/16 03:38:49;;;;;;;8.07;4.07;;;;;;;4.76;100.00;102079.22;4914261;29;20126;-86
2023/10/16 04:08:59;;;;;;;7.68;4.35;;;;;;;4.66;100.00;102087.13;6041110;23;20014;31
2023/10/16 04:17:46;;;;;;;5.85;4.07;;;;;;;4.58;100.00;102074.44;4942286;28;20110;-78
2023/10/16 04:28:09;;;;;;;6.15;4.10;;;;;;;4.65;100.00;102069.44;4966104;28;20039;-83
2023/10/16 04:59:47;;;;;;;5.50;4.50;;;;;;;4.44;100.00;102040.03;4881075;29;20133;-86
2023/10/16 06:14:45;;;;;;;9.48;4.97;;;;;;;4.96;100.00;102038.34;5460347;23;20072;-86
2023/10/16 06:17:32;;;;;;;8.55;5.18;;;;;;;5.08;100.00;102033.78;5721326;23;20386;-86
2023/10/16 06:53:26;;;;;;;7.28;3.58;;;;;;;5.98;100.00;102051.88;5724834;23;20060;-86
2023/10/16 07:44:36;;;;;;;;;;;;;;;;;;;;;
2023/10/16 08:50:40;;;;;;;5.85;2.97;;;;;;;12.47;75.46;102105.16;5079660;23;20166;-87
2023/10/16 09:03:26;;;;;;;4.97;2.88;;;;;;;12.00;76.96;102088.91;4916908;29;20227;-86
2023/10/16 09:29:13;;;;;;;7.32;3.08;;;;;;;11.70;79.06;102093.19;4958937;28;20109;-87
2023/10/16 09:44:38;;;;;;;3.65;2.13;;;;;;;11.84;76.72;102097.88;4936559;29;20068;-86
2023/10/16 13:16:42;;;;;;;3.55;1.02;;;;;;;13.29;68.71;101979.28;5600492;23;20034;31
2023/10/16 13:22:15;;;;;;;5.47;1.30;;;;;;;13.42;67.57;101984.06;4913276;29;20059;-87
2023/10/16 13:25:11;;;;;;;2.28;0.98;;;;;;;13.23;68.96;101985.44;4916163;29;20025;-86
2023/10/16 13:27:40;;;;;;;3.93;1.10;;;;;;;13.37;70.08;101973.78;4922713;29;20118;-86
2023/10/16 13:30:25;;;;;;;3.45;1.20;;;;;;;13.37;67.87;101964.81;4933675;29;20363;-88
2023/10/16 13:36:03;;;;;;;3.58;0.77;;;;;;;13.84;66.80;101981.66;4935394;29;20090;-87
2023/10/16 13:38:44;;;;;;;2.95;1.20;;;;;;;13.98;65.01;101971.81;4916154;29;20032;-88
2023/10/16 13:41:50;;;;;;;3.42;0.93;;;;;;;13.80;64.19;101975.78;4931483;29;20180;-88
2023/10/16 13:44:58;;;;;;;4.00;1.10;;;;;;;13.56;63.80;101977.78;4931250;29;20382;-88
2023/10/16 13:59:03;;;;;;;3.03;0.90;;;;;;;13.70;64.01;101959.00;4941263;28;20066;-87
2023/10/16 14:01:30;;;;;;;5.22;1.20;;;;;;;13.68;65.02;101961.09;4958088;28;20031;-87
2023/10/16 14:03:59;;;;;;;3.00;1.02;;;;;;;13.42;65.74;101960.53;4958449;28;20034;-87
2023/10/16 14:06:27;;;;;;;3.85;2.00;;;;;;;13.60;68.02;101962.84;4942166;29;20038;-87
2023/10/16 14:09:32;;;;;;;5.25;1.73;;;;;;;13.59;67.55;101957.66;4960266;28;20027;-86
2023/10/16 14:12:17;;;;;;;3.50;1.50;;;;;;;13.58;66.70;101964.09;4964171;23;20059;-87
2023/10/16 14:15:05;;;;;;;4.65;1.63;;;;;;;13.56;67.66;101964.25;4947051;28;20039;-86
2023/10/16 14:17:44;;;;;;;4.55;1.30;;;;;;;13.58;66.19;101959.50;4936009;29;20047;-86
2023/10/16 14:23:32;;;;;;;2.67;1.33;;;;;;;13.52;67.53;101956.72;4923888;29;20047;-86
2023/10/16 14:26:26;;;;;;;3.65;1.23;;;;;;;13.52;69.55;101962.13;4929757;29;20055;-87
2023/10/16 14:29:25;;;;;;;3.90;1.33;;;;;;;13.32;70.01;101957.25;4925066;29;20063;-87
2023/10/16 14:32:07;;;;;;;4.50;1.10;;;;;;;13.37;68.83;101957.56;4934069;29;20039;-88
2023/10/16 14:34:32;;;;;;;5.15;1.20;;;;;;;12.93;69.43;101948.44;4934189;29;20492;-87
2023/10/16 14:37:25;;;;;;;4.22;1.20;;;;;;;12.94;70.95;101943.84;4937344;29;20031;-86
2023/10/16 14:39:57;;;;;;;2.83;0.95;;;;;;;12.97;69.95;101949.72;4936939;29;20031;-87
2023/10/16 14:42:25;;;;;;;1.77;0.90;;;;;;;13.07;70.33;101952.13;4936498;29;20043;-88
2023/10/16 14:47:24;;;;;;;4.88;1.40;;;;;;;13.08;69.29;101937.59;4945136;28;20052;-87
2023/10/16 14:50:04;;;;;;;5.68;1.40;;;;;;;13.10;69.09;101945.53;4952031;28;20019;-86
2023/10/16 14:52:30;;;;;;;5.85;1.42;;;;;;;12.95;68.74;101938.28;4941098;28;20027;-88
2023/10/16 14:58:34;;;;;;;5.47;1.40;;;;;;;12.62;68.41;101930.47;4968780;28;20125;-87
2023/10/16 15:01:14;;;;;;;3.17;1.17;;;;;;;12.50;70.10;101931.97;4944100;28;20460;-87
2023/10/16 15:03:53;;;;;;;3.58;1.50;;;;;;;12.37;70.06;101927.19;4937363;29;20051;-89
2023/10/16 15:06:25;;;;;;;3.40;1.42;;;;;;;12.15;69.96;101921.66;4926694;29;20040;-88
2023/10/16 15:08:53;;;;;;;4.32;1.17;;;;;;;12.20;72.47;101926.50;4950750;28;20025;-89
2023/10/16 15:17:05;;;;;;;4.50;1.17;;;;;;;11.96;72.62;101933.72;4961639;23;20471;-87
2023/10/16 15:19:38;;;;;;;6.32;1.55;;;;;;;11.96;73.99;101926.47;4963600;23;20103;-87
2023/10/16 15:22:23;;;;;;;6.13;1.40;;;;;;;11.97;74.05;101921.91;4972620;28;20031;-87
2023/10/16 15:25:24;;;;;;;6.57;1.35;;;;;;;11.94;74.63;101928.50;4951306;28;20552;-88
2023/10/16 15:27:54;;;;;;;3.15;1.17;;;;;;;11.94;75.25;101928.50;4956766;28;20027;-88
2023/10/16 15:30:30;;;;;;;4.03;1.20;;;;;;;11.95;75.36;101930.19;4954677;28;20023;-87
2023/10/16 15:33:00;;;;;;;6.57;1.23;;;;;;;11.92;75.32;101927.84;4959669;28;20380;-87
2023/10/16 15:35:26;;;;;;;2.70;1.05;;;;;;;11.88;75.88;101929.22;4966676;28;20023;-88
2023/10/16 15:37:52;;;;;;;3.70;1.33;;;;;;;11.74;76.10;101933.50;4957407;28;20121;-86
2023/10/16 15:40:17;;;;;;;4.40;1.20;;;;;;;11.72;77.07;101923.94;4961916;28;20019;-88
2023/10/16 15:42:52;;;;;;;4.65;1.20;;;;;;;11.71;77.16;101925.81;4961892;28;20035;-87
2023/10/16 15:45:18;;;;;;;3.10;1.00;;;;;;;11.68;76.44;101920.75;4966425;28;20031;-88
2023/10/16 15:47:44;;;;;;;5.72;1.42;;;;;;;11.57;76.55;101916.59;4966439;28;20039;-86
2023/10/16 15:50:17;;;;;;;3.90;1.20;;;;;;;11.50;77.58;101916.47;4975651;28;20081;-86
2023/10/16 15:52:43;;;;;;;3.70;1.23;;;;;;;11.43;78.41;101922.75;4950415;28;20155;-87
2023/10/16 15:55:17;;;;;;;4.15;1.30;;;;;;;11.27;80.10;101916.44;4951992;28;20039;-89
2023/10/16 15:57:46;;;;;;;6.60;1.80;;;;;;;11.11;81.38;101913.81;4948142;28;20027;-86
2023/10/16 16:00:12;;;;;;;5.13;1.80;;;;;;;11.00;81.82;101910.44;4971826;28;20031;-86
2023/10/16 16:02:39;;;;;;;4.55;1.73;;;;;;;10.90;83.37;101910.66;4964139;28;20091;-86
2023/10/16 16:05:05;;;;;;;5.10;1.77;;;;;;;10.75;84.83;101907.84;4939860;28;20051;-86
2023/10/16 16:07:30;;;;;;;4.60;1.80;;;;;;;10.56;87.08;101916.28;4976712;28;20398;-87
2023/10/16 16:09:59;;;;;;;6.30;1.95;;;;;;;10.39;87.94;101913.63;4952917;28;20038;-86
2023/10/16 16:12:25;;;;;;;3.60;1.40;;;;;;;10.22;89.65;101907.34;4948648;28;20035;-87
2023/10/16 16:14:50;;;;;;;3.65;1.52;;;;;;;10.10;90.56;101909.53;4969064;28;20037;-85
2023/10/16 16:17:16;;;;;;;5.40;1.63;;;;;;;9.99;92.47;101909.88;4960158;28;20131;-87
2023/10/16 16:19:42;;;;;;;4.78;1.60;;;;;;;9.85;93.83;101906.84;4943791;28;20130;-86
2023/10/16 16:22:10;;;;;;;4.90;2.22;;;;;;;9.71;95.32;101916.41;4952417;28;20428;-87
2023/10/16 16:25:04;;;;;;;2.92;1.67;;;;;;;9.58;96.59;101915.19;4951426;28;20369;-86
2023/10/16 16:27:29;;;;;;;5.28;1.95;;;;;;;9.45;97.85;101911.13;4958269;28;20031;-87
2023/10/16 16:29:55;;;;;;;3.08;1.80;;;;;;;9.35;98.22;101916.63;4963686;28;20042;-85
2023/10/16 16:32:26;;;;;;;6.20;2.45;;;;;;;9.27;99.13;101921.13;4949519;29;20031;-86
2023/10/16 16:34:52;;;;;;;6.18;2.97;;;;;;;9.16;99.68;101923.13;4939352;28;20023;-85
2023/10/16 16:37:52;;;;;;;6.05;2.80;;;;;;;9.04;100.00;101919.00;4964255;28;20061;-86
2023/10/16 16:40:29;;;;;;;5.75;3.30;;;;;;;8.89;100.00;101922.28;4938000;28;20045;-84
2023/10/16 16:42:55;;;;;;;8.43;4.63;;;;;;;8.78;100.00;101925.25;4943630;28;20083;-85
2023/10/16 16:45:24;;;;;;;10.43;6.40;;;;;;;8.69;100.00;101926.19;4949767;28;20035;-84
2023/10/16 16:47:53;;;;;;;13.60;6.20;;;;;;;8.53;100.00;101922.41;4951547;28;20587;-85
2023/10/16 16:50:28;;;;;;;10.60;5.82;;;;;;;8.38;100.00;101921.25;4955550;28;20499;-84
2023/10/16 16:53:03;;;;;;;7.95;5.45;;;;;;;8.23;100.00;101926.31;4946330;28;20030;-85
2023/10/16 16:55:49;;;;;;;8.60;4.80;;;;;;;8.08;100.00;101934.91;4967729;28;20042;-85
2023/10/16 16:58:45;;;;;;;5.95;3.97;;;;;;;7.94;100.00;101933.63;4949938;28;20047;-87
2023/10/16 17:01:22;;;;;;;6.70;3.72;;;;;;;7.74;100.00;101922.19;4933995;28;20320;-86
2023/10/16 17:04:23;;;;;;;5.15;4.10;;;;;;;7.66;100.00;101939.03;4955945;28;20109;-86
2023/10/16 17:07:02;;;;;;;7.35;4.70;;;;;;;7.54;100.00;101930.34;4921749;29;20127;-86
2023/10/16 17:09:28;;;;;;;7.50;4.07;;;;;;;7.48;100.00;101933.66;4962078;28;20039;-86
2023/10/16 17:11:53;;;;;;;6.85;3.50;;;;;;;7.45;100.00;101936.63;4963678;28;20036;-86
2023/10/16 17:14:30;;;;;;;;;;;;;;;7.36;100.00;101937.50;4961146;28;20102;-85
2023/10/16 17:16:57;;;;;;;8.23;4.22;;;;;;;7.26;100.00;101945.59;4951925;28;19992;-85
2023/10/16 17:19:28;;;;;;;15.23;9.65;;;;;;;7.15;100.00;101943.94;4943447;28;20039;-85
2023/10/16 17:22:10;;;;;;;10.27;5.25;;;;;;;7.10;100.00;101935.53;4963479;28;20038;-84
2023/10/16 17:24:36;;;;;;;8.90;4.70;;;;;;;7.03;100.00;101937.94;4959125;28;20043;-86
2023/10/16 17:27:02;;;;;;;7.68;5.25;;;;;;;6.97;100.00;101936.69;4944588;28;20032;-87
2023/10/16 17:29:27;;;;;;;;;;;;;;;6.89;100.00;101943.75;4947337;28;20039;-85
2023/10/16 17:31:55;;;;;;;6.23;4.60;;;;;;;6.81;100.00;101942.66;4965677;28;19925;-87
2023/10/16 17:34:24;;;;;;;6.80;4.57;;;;;;;6.77;100.00;101940.44;4963710;28;20031;-88
2023/10/16 17:36:51;;;;;;;9.95;4.57;;;;;;;6.69;100.00;101927.78;4955791;28;20039;-85
2023/10/16 17:39:18;;;;;;;6.72;4.78;;;;;;;6.62;100.00;101935.50;4956148;28;20035;-85
2023/10/16 17:41:44;;;;;;;8.30;4.68;;;;;;;6.54;100.00;101930.03;4956433;28;20031;-85
2023/10/16 17:44:09;;;;;;;;;;;;;;;6.46;100.00;101930.75;4951549;28;20047;-85
2023/10/16 17:46:38;;;;;;;11.10;6.50;;;;;;;6.40;100.00;101928.66;4948049;28;20287;-83
2023/10/16 17:49:07;;;;;;;14.48;7.00;;;;;;;6.39;100.00;101939.50;4961332;28;20110;-83
2023/10/16 17:51:37;;;;;;;10.70;7.35;;;;;;;6.33;100.00;101932.91;4956760;28;20039;-87
2023/10/16 17:54:08;;;;;;;12.43;7.97;;;;;;;6.30;100.00;101930.50;4949726;28;20031;-88
2023/10/16 17:56:39;;;;;;;17.83;9.85;;;;;;;6.26;100.00;101937.09;4961855;28;20034;-90
2023/10/16 17:59:05;;;;;;;14.18;8.93;;;;;;;6.18;100.00;101930.63;4971342;28;20030;-88
2023/10/16 18:01:31;;;;;;;;;;;;;;;6.12;100.00;101931.22;4971308;28;20027;-90
2023/10/16 18:04:27;;;;;;;10.75;6.55;;;;;;;6.06;100.00;101935.28;4971137;28;19914;-90
2023/10/16 18:07:06;;;;;;;13.98;7.30;;;;;;;6.06;100.00;101937.97;4955128;28;20035;-87
2023/10/16 18:12:55;;;;;;;10.10;7.05;;;;;;;5.94;100.00;101932.84;4940714;28;20090;-87
2023/10/16 18:15:32;;;;;;;9.25;5.88;;;;;;;5.90;100.00;101932.31;4950557;28;20045;-89
2023/10/16 18:21:22;;;;;;;9.50;6.05;;;;;;;5.87;100.00;101938.75;4967563;28;20055;-88
2023/10/16 18:24:28;;;;;;;6.18;5.32;;;;;;;5.87;100.00;101944.09;4972284;28;20038;-87
2023/10/16 18:27:03;;;;;;;8.48;5.90;;;;;;;5.91;100.00;101940.16;4976024;28;20049;-88
2023/10/16 18:29:29;;;;;;;10.00;5.88;;;;;;;5.91;100.00;101925.97;4976662;28;20061;-86
2023/10/16 18:31:56;;;;;;;7.28;5.50;;;;;;;5.99;100.00;101933.28;4975080;28;20038;-87
2023/10/16 18:34:22;;;;;;;7.07;5.50;;;;;;;5.98;100.00;101926.25;4966422;28;20046;-87
2023/10/16 18:37:00;;;;;;;;;;;;;;;5.95;100.00;101930.03;4973119;28;20487;-85
2023/10/16 18:39:29;;;;;;;7.45;5.30;;;;;;;5.95;100.00;101934.56;4977296;23;19934;-87
2023/10/16 18:41:55;;;;;;;9.15;6.32;;;;;;;5.96;100.00;101941.59;4910118;29;21045;-87
2023/10/16 18:44:27;;;;;;;6.85;5.60;;;;;;;5.98;100.00;101936.94;4902668;29;20048;-87
2023/10/16 18:47:22;;;;;;;11.52;6.93;;;;;;;6.00;100.00;101932.34;4914415;29;20034;-87
2023/10/16 18:50:28;;;;;;;9.90;7.25;;;;;;;6.02;100.00;101931.22;4937532;29;20024;-87
2023/10/16 18:53:26;;;;;;;9.75;6.90;;;;;;;6.02;100.00;101930.34;4936142;29;20043;-87
2023/10/16 18:56:04;;;;;;;9.82;7.10;;;;;;;5.95;100.00;101924.69;4937709;29;20038;-87
2023/10/16 18:58:31;;;;;;;11.75;8.70;;;;;;;6.01;100.00;101926.84;4923613;29;20032;-87
2023/10/16 19:01:03;;;;;;;14.02;10.45;;;;;;;6.01;100.00;101928.66;5054872;23;20522;-86
2023/10/16 19:07:19;;;;;;;20.40;13.00;;;;;;;6.05;100.00;101930.94;4958377;23;20073;-87
2023/10/16 19:09:49;;;;;;;20.65;15.50;;;;;;;6.04;100.00;101920.38;4906775;29;20032;-87
2023/10/16 19:12:26;;;;;;;18.98;14.45;;;;;;;6.01;100.00;101923.31;4938487;29;20032;-87
2023/10/16 19:14:53;;;;;;;22.55;15.18;;;;;;;5.96;100.00;101918.34;4955067;29;20328;-87
2023/10/16 19:17:22;;;;;;;21.88;16.35;;;;;;;5.91;100.00;101921.47;4956337;29;20050;-87
2023/10/16 19:19:55;;;;;;;18.33;14.38;;;;;;;5.87;100.00;101927.22;4957814;29;20031;-86
2023/10/16 19:23:31;;;;;;;19.40;15.00;;;;;;;5.82;100.00;101927.66;4958599;29;20499;-86
2023/10/16 19:26:26;;;;;;;26.63;17.75;;;;;;;5.82;100.00;101941.00;4908526;29;20137;-87
2023/10/16 19:29:01;;;;;;;19.83;16.23;;;;;;;5.80;100.00;101942.13;4955086;29;20054;-87
2023/10/16 19:31:41;;;;;;;19.38;16.02;;;;;;;5.72;100.00;101946.34;4954432;29;20044;-80
2023/10/16 19:34:28;;;;;;;20.30;16.63;;;;;;;5.67;100.00;101945.91;4952756;29;20043;-83
2023/10/16 19:37:01;;;;;;;22.52;16.48;;;;;;;5.64;100.00;101950.69;4954335;29;20039;-83
2023/10/16 19:39:27;;;;;;;20.52;15.82;;;;;;;5.58;100.00;101944.91;4952082;29;20031;-83
2023/10/16 19:42:12;;;;;;;;;;;;;;;5.58;100.00;101952.06;4939947;29;20465;-83
2023/10/16 19:44:43;;;;;;;20.98;14.90;;;;;;;5.52;100.00;101944.59;4950507;29;19929;-83
2023/10/16 19:47:27;;;;;;;17.52;14.45;;;;;;;5.45;100.00;101949.66;4952738;29;20035;-83
2023/10/16 19:49:53;;;;;;;21.48;15.05;;;;;;;5.39;100.00;101950.19;4952643;29;20039;-83
2023/10/16 19:52:25;;;;;;;;;;;;;;;5.37;100.00;101950.31;4955047;29;20039;-83
2023/10/16 19:54:59;;;;;;;21.77;14.57;;;;;;;5.36;100.00;101947.78;4944742;29;19918;-83
2023/10/16 19:57:25;;;;;;;21.17;15.23;;;;;;;5.38;100.00;101945.81;4954458;29;20023;-83
2023/10/16 19:59:50;;;;;;;;;;;;;;;5.38;100.00;101949.34;4951427;28;20019;-83
2023/10/16 20:02:27;;;;;;;24.83;18.80;;;;;;;5.29;100.00;101944.81;4954268;28;20338;-83
2023/10/16 20:05:07;;;;;;;23.13;18.10;;;;;;;5.27;100.00;101944.94;4953185;29;20031;-83
2023/10/16 20:07:32;;;;;;;27.88;19.70;;;;;;;5.22;100.00;101955.19;4952176;29;20046;-82
2023/10/16 20:09:58;;;;;;;;;;;;;;;5.20;100.00;101959.81;4950574;29;20031;-82
2023/10/16 20:12:24;;;;;;;20.83;16.15;;;;;;;5.18;100.00;101952.91;4954796;29;20382;-83
2023/10/16 20:14:49;;;;;;;;;;;;;;;5.21;100.00;101964.16;4952629;29;20034;-83
2023/10/16 20:17:14;;;;;;;22.27;15.73;;;;;;;5.17;100.00;101957.41;4952302;29;19932;-82
2023/10/16 20:19:41;;;;;;;;;;;;;;;5.14;100.00;101957.66;4953595;29;20302;-83
2023/10/16 20:22:06;;;;;;;20.45;15.30;;;;;;;5.12;100.00;101954.28;4952015;28;19969;-82
2023/10/16 20:24:32;;;;;;;;;;;;;;;5.07;100.00;101945.84;4953795;29;20050;-82
2023/10/16 20:26:57;;;;;;;23.48;16.00;;;;;;;5.07;100.00;101951.19;4953625;29;19919;-82
2023/10/16 20:29:23;;;;;;;;;;;;;;;5.01;100.00;101942.72;4955419;29;20027;-83
2023/10/16 20:31:49;;;;;;;19.38;14.05;;;;;;;5.10;100.00;101937.56;4942059;29;19940;-82
2023/10/16 20:34:15;;;;;;;;;;;;;;;5.08;100.00;101942.19;4934072;29;20034;-82
2023/10/16 20:36:43;;;;;;;15.68;12.55;;;;;;;5.01;100.00;101934.72;4953593;29;19973;-82
2023/10/16 20:39:12;;;;;;;17.25;12.43;;;;;;;4.96;100.00;101938.78;4953379;29;20031;-83
2023/10/16 20:41:38;;;;;;;16.65;12.77;;;;;;;5.00;100.00;101937.53;4951506;29;20495;-83
2023/10/16 20:44:06;;;;;;;;;;;;;;;4.91;100.00;101936.50;4958192;28;20500;-83
2023/10/16 20:46:31;;;;;;;12.27;10.43;;;;;;;4.91;100.00;101944.50;4961555;29;20036;-83
2023/10/16 20:48:57;;;;;;;;;;;;;;;4.92;100.00;101942.66;4964187;29;20429;-83
2023/10/16 20:51:26;;;;;;;14.60;10.43;;;;;;;4.95;100.00;101942.41;4959221;29;19926;-82
2023/10/16 20:53:51;;;;;;;12.98;10.93;;;;;;;4.93;100.00;101945.22;4958746;29;20122;-82
2023/10/16 20:56:16;;;;;;;;;;;;;;;4.88;100.00;101944.78;4956804;29;20053;-82
2023/10/16 20:58:46;;;;;;;11.17;9.50;;;;;;;4.87;100.00;101948.41;4951075;29;19970;-81
2023/10/16 21:01:15;;;;;;;13.85;10.10;;;;;;;4.90;100.00;101942.81;4946195;29;20330;-82
2023/10/16 21:06:10;;;;;;;13.02;9.95;;;;;;;4.88;100.00;101942.09;4949720;29;20055;-82
2023/10/16 21:08:36;;;;;;;16.27;11.30;;;;;;;4.86;100.00;101938.72;4950603;29;20031;-83
2023/10/16 21:11:01;;;;;;;;;;;;;;;4.79;100.00;101932.22;4955610;28;20512;-82
2023/10/16 21:13:28;;;;;;;14.03;10.17;;;;;;;4.74;100.00;101932.59;4957180;29;19930;-83
2023/10/16 21:15:53;;;;;;;13.50;9.80;;;;;;;4.70;100.00;101942.72;4956763;29;20032;-83
2023/10/16 21:18:19;;;;;;;;;;;;;;;4.68;100.00;101946.47;4955220;29;20042;-83
2023/10/16 21:20:48;;;;;;;12.90;8.98;;;;;;;4.64;100.00;101939.72;4943784;29;19918;-82
2023/10/16 21:23:13;;;;;;;14.45;10.25;;;;;;;4.60;100.00;101938.28;4957858;29;20034;-82
2023/10/16 21:25:40;;;;;;;;;;;;;;;4.53;100.00;101943.28;4958890;29;20035;-83
2023/10/16 21:28:06;;;;;;;18.52;11.48;;;;;;;4.56;100.00;101951.03;4955227;29;19920;-82
2023/10/16 21:30:34;;;;;;;17.10;10.98;;;;;;;4.58;100.00;101946.44;4957667;29;20023;-81
2023/10/16 21:33:06;;;;;;;14.45;10.35;;;;;;;4.49;100.00;101949.84;4956277;29;20510;-83
2023/10/16 21:35:31;;;;;;;12.23;9.82;;;;;;;4.39;100.00;101953.31;4952996;29;20101;-82
2023/10/16 21:37:57;;;;;;;;;;;;;;;4.30;100.00;101955.91;4957200;29;20468;-82
2023/10/16 21:40:22;;;;;;;12.07;9.10;;;;;;;4.19;100.00;101952.28;4959675;29;19920;-82
2023/10/16 21:42:47;;;;;;;;;;;;;;;4.10;100.00;101951.25;4958266;29;20039;-80
2023/10/16 21:45:18;;;;;;;17.37;10.60;;;;;;;4.03;100.00;101942.09;4956552;29;19933;-82
2023/10/16 21:47:44;;;;;;;15.77;11.25;;;;;;;4.00;100.00;101942.34;4958841;29;20287;-82
2023/10/16 21:50:12;;;;;;;;;;;;;;;3.95;100.00;101941.84;4943290;29;20035;-82
2023/10/16 21:52:40;;;;;;;15.85;10.50;;;;;;;3.94;100.00;101948.16;4957381;29;19925;-82
2023/10/16 21:55:06;;;;;;;15.48;10.95;;;;;;;3.92;100.00;101945.63;4958963;29;20027;-82
2023/10/16 21:57:31;;;;;;;;;;;;;;;3.90;100.00;101949.38;4936033;29;20520;-81
2023/10/16 21:59:57;;;;;;;15.13;10.53;;;;;;;3.85;100.00;101946.25;4955185;29;20391;-81
2023/10/16 22:02:22;;;;;;;;;;;;;;;3.82;100.00;101949.16;4956613;29;20031;-81
2023/10/16 22:04:50;;;;;;;15.80;10.07;;;;;;;3.75;100.00;101947.00;4953799;29;19925;-81
2023/10/16 22:07:15;;;;;;;12.60;10.00;;;;;;;3.73;100.00;101959.59;4954861;29;20495;-81
2023/10/16 22:09:41;;;;;;;;;;;;;;;3.67;100.00;101957.44;4955352;29;20043;-81
2023/10/16 22:12:06;;;;;;;13.73;9.67;;;;;;;3.60;100.00;101958.88;4955515;29;19977;-81
2023/10/16 22:14:32;;;;;;;;;;;;;;;3.54;100.00;101957.56;4958680;29;20031;-80
2023/10/16 22:22:07;;;;;;;12.73;10.15;;;;;;;3.37;100.00;101966.06;4971666;23;20051;-82
2023/10/16 22:24:33;;;;;;;;;;;;;;;3.31;100.00;101956.75;4957930;29;20042;-81
2023/10/16 22:26:59;;;;;;;14.65;10.35;;;;;;;3.26;100.00;101948.28;5091700;23;20029;-82
2023/10/16 22:29:27;;;;;;;13.73;10.13;;;;;;;3.19;100.00;101958.56;4955065;29;20465;-82
2023/10/16 22:31:52;;;;;;;13.05;10.50;;;;;;;3.13;100.00;101953.72;5318120;23;20051;-81
2023/10/16 22:34:18;;;;;;;;;;;;;;;3.12;100.00;101952.03;4955244;29;20043;-81
2023/10/16 22:36:43;;;;;;;11.50;8.60;;;;;;;3.06;100.00;101948.03;4954164;29;19929;-81
2023/10/16 22:39:09;;;;;;;;;;;;;;;3.02;100.00;101946.56;4955140;29;20035;-81
2023/10/16 22:41:37;;;;;;;14.15;9.48;;;;;;;2.99;100.00;101946.84;4938831;29;19922;-81
2023/10/16 22:44:04;;;;;;;12.25;9.88;;;;;;;2.97;100.00;101938.13;4955148;29;20147;-81
2023/10/16 22:46:58;;;;;;;14.65;9.85;;;;;;;2.92;100.00;101929.66;4952126;28;20031;-81
2023/10/16 22:49:23;;;;;;;18.25;11.73;;;;;;;2.90;100.00;101918.28;4953459;29;20127;-81
2023/10/16 22:55:05;;;;;;;14.30;9.60;;;;;;;2.94;100.00;101917.09;5341761;23;20051;-81
2023/10/16 22:57:32;;;;;;;13.68;9.70;;;;;;;2.94;100.00;101922.41;4916847;29;20564;-81
2023/10/16 22:59:57;;;;;;;;;;;;;;;2.94;100.00;101923.22;4902183;29;20055;-81
2023/10/16 23:02:22;;;;;;;13.50;8.87;;;;;;;2.92;100.00;101924.34;4917227;29;19923;-81
2023/10/16 23:04:47;;;;;;;;;;;;;;;2.91;100.00;101923.50;4915994;29;21073;-81
2023/10/16 23:07:13;;;;;;;11.90;8.27;;;;;;;2.91;100.00;101927.97;4915929;29;19930;-81
2023/10/16 23:09:45;;;;;;;13.48;9.95;;;;;;;2.88;100.00;101923.72;4916884;29;20032;-81
2023/10/16 23:12:13;;;;;;;12.73;9.00;;;;;;;2.91;100.00;101925.28;4904565;29;20036;-81
2023/10/16 23:14:39;;;;;;;12.35;9.90;;;;;;;2.95;100.00;101919.59;4926431;29;20039;-81
2023/10/16 23:17:16;;;;;;;14.90;9.98;;;;;;;2.96;100.00;101920.47;4925926;29;20036;-82
2023/10/16 23:19:47;;;;;;;12.27;9.88;;;;;;;2.92;100.00;101913.69;4926892;29;20043;-81
2023/10/16 23:22:14;;;;;;;11.85;9.05;;;;;;;2.90;100.00;101920.94;4926830;29;20493;-81
2023/10/16 23:24:39;;;;;;;15.88;10.05;;;;;;;2.86;100.00;101913.19;4917370;29;20052;-82
2023/10/16 23:27:06;;;;;;;12.15;8.50;;;;;;;2.89;100.00;101920.09;4909078;29;20028;-82
2023/10/16 23:29:32;;;;;;;14.52;9.43;;;;;;;2.85;100.00;101908.84;4916095;29;20040;-82
2023/10/16 23:32:03;;;;;;;15.13;9.18;;;;;;;2.88;100.00;101907.78;4914877;29;20047;-81
2023/10/16 23:34:32;;;;;;;12.18;8.98;;;;;;;2.86;100.00;101905.22;4913805;29;20537;-82
2023/10/16 23:37:03;;;;;;;13.23;9.38;;;;;;;2.84;100.00;101901.81;4914274;29;20123;-82